createdAt,value
2023-04-19T00:02:25.681Z,10.17
2023-04-19T00:04:57.896Z,10.18
2023-04-19T00:07:29.800Z,10.19
2023-04-19T00:10:01.575Z,10.16
2023-04-19T00:12:33.328Z,10.17
2023-04-19T00:15:06.323Z,10.14
2023-04-19T00:17:38.204Z,10.19
2023-04-19T00:20:11.606Z,10.18
2023-04-19T00:22:43.329Z,10.20
2023-04-19T00:25:15.130Z,10.20
2023-04-19T00:27:47.143Z,10.24
2023-04-19T00:30:18.866Z,10.26
2023-04-19T00:32:50.716Z,10.24
2023-04-19T00:35:22.531Z,10.23
2023-04-19T00:37:54.343Z,10.21
2023-04-19T00:40:26.156Z,10.23
2023-04-19T00:42:58.015Z,10.28
2023-04-19T00:45:29.785Z,10.31
2023-04-19T00:48:02.287Z,10.27
2023-04-19T00:50:36.073Z,10.25
2023-04-19T00:53:08.098Z,10.19
2023-04-19T00:55:39.919Z,10.14
2023-04-19T00:58:11.705Z,10.13
2023-04-19T01:00:44.332Z,10.13
2023-04-19T01:03:17.731Z,10.09
2023-04-19T01:05:50.985Z,10.05
2023-04-19T01:08:23.329Z,10.06
2023-04-19T01:10:58.859Z,10.05
2023-04-19T01:13:30.614Z,10.04
2023-04-19T01:16:02.446Z,10.05
2023-04-19T01:18:37.545Z,10.00
2023-04-19T01:21:10.101Z,10.03
2023-04-19T01:23:42.053Z,10.04
2023-04-19T01:26:13.996Z,10.02
2023-04-19T01:28:45.792Z,10.04
2023-04-19T01:31:17.522Z,10.09
2023-04-19T01:33:49.223Z,10.12
2023-04-19T01:36:20.928Z,10.12
2023-04-19T01:38:52.686Z,10.09
2023-04-19T01:41:27.134Z,10.10
2023-04-19T01:43:58.900Z,10.10
2023-04-19T01:46:30.686Z,10.09
2023-04-19T01:49:02.521Z,10.11
2023-04-19T01:51:34.303Z,10.11
2023-04-19T01:54:06.360Z,10.16
2023-04-19T01:56:38.086Z,10.17
2023-04-19T01:59:09.766Z,10.17
2023-04-19T02:01:41.532Z,10.17
2023-04-19T02:04:13.513Z,10.13
2023-04-19T02:06:45.460Z,10.14
2023-04-19T02:09:17.238Z,10.11
2023-04-19T02:11:51.081Z,10.11
2023-04-19T02:14:22.749Z,10.04
2023-04-19T02:16:54.683Z,9.98
2023-04-19T02:19:26.520Z,9.95
2023-04-19T02:21:58.313Z,9.99
2023-04-19T02:24:30.086Z,9.98
2023-04-19T02:27:04.991Z,9.93
2023-04-19T02:29:39.509Z,9.93
2023-04-19T02:32:14.693Z,9.86
2023-04-19T02:34:46.407Z,9.83
2023-04-19T02:37:18.529Z,9.82
2023-04-19T02:39:51.276Z,9.79
2023-04-19T02:42:22.988Z,9.81
2023-04-19T02:44:54.776Z,9.84
2023-04-19T02:47:29.307Z,9.86
2023-04-19T02:50:01.645Z,9.82
2023-04-19T02:52:35.452Z,9.74
2023-04-19T02:55:07.772Z,9.74
2023-04-19T02:57:39.800Z,9.76
2023-04-19T03:00:14.182Z,9.73
2023-04-19T03:02:54.179Z,9.72
2023-04-19T03:05:26.076Z,9.71
2023-04-19T03:07:57.774Z,9.69
2023-04-19T03:10:29.729Z,9.70
2023-04-19T03:13:01.464Z,9.75
2023-04-19T03:15:34.478Z,9.79
2023-04-19T03:18:06.415Z,9.77
2023-04-19T03:20:39.436Z,9.77
2023-04-19T03:23:11.201Z,9.77
2023-04-19T03:25:43.609Z,9.74
2023-04-19T03:28:31.107Z,9.74
2023-04-19T03:31:35.407Z,9.72
2023-04-19T03:34:08.425Z,9.74
2023-04-19T03:36:46.477Z,9.75
2023-04-19T03:39:18.317Z,9.72
2023-04-19T03:41:52.732Z,9.71
2023-04-19T03:44:32.263Z,9.69
2023-04-19T03:47:04.017Z,9.73
2023-04-19T03:49:41.458Z,9.74
2023-04-19T03:52:13.165Z,9.76
2023-04-19T03:54:45.226Z,9.73
2023-04-19T03:57:29.756Z,9.71
2023-04-19T04:00:08.277Z,9.73
2023-04-19T04:02:45.787Z,9.71
2023-04-19T04:05:18.580Z,9.69
2023-04-19T04:07:50.583Z,9.72
2023-04-19T04:10:23.488Z,9.74
2023-04-19T04:12:56.047Z,9.74
2023-04-19T04:15:33.866Z,9.75
2023-04-19T04:18:08.413Z,9.75
2023-04-19T04:20:41.432Z,9.77
2023-04-19T04:23:16.553Z,9.78
2023-04-19T04:26:02.574Z,9.79
2023-04-19T04:28:52.256Z,9.81
2023-04-19T04:31:24.494Z,9.82
2023-04-19T04:33:56.570Z,9.83
2023-04-19T04:36:29.830Z,9.83
2023-04-19T04:39:02.174Z,9.77
2023-04-19T04:41:36.069Z,9.75
2023-04-19T04:44:13.072Z,9.77
2023-04-19T04:46:46.733Z,9.78
2023-04-19T04:49:23.623Z,9.80
2023-04-19T04:51:55.955Z,9.79
2023-04-19T04:54:27.938Z,9.78
2023-04-19T04:57:02.988Z,9.80
2023-04-19T04:59:35.977Z,9.72
2023-04-19T05:02:08.726Z,9.71
2023-04-19T05:04:40.959Z,9.78
2023-04-19T05:07:12.741Z,9.69
2023-04-19T05:09:44.496Z,9.65
2023-04-19T05:12:19.143Z,9.68
2023-04-19T05:14:51.042Z,9.65
2023-04-19T05:17:23.015Z,9.61
2023-04-19T05:19:54.850Z,9.62
2023-04-19T05:22:27.501Z,9.67
2023-04-19T05:24:59.354Z,9.68
2023-04-19T05:27:31.677Z,9.68
2023-04-19T05:30:05.126Z,9.71
2023-04-19T05:32:37.456Z,9.68
2023-04-19T05:35:11.412Z,9.69
2023-04-19T05:37:43.429Z,9.67
2023-04-19T05:40:15.349Z,9.65
2023-04-19T05:42:47.027Z,9.64
2023-04-19T05:45:19.074Z,9.57
2023-04-19T05:47:50.976Z,9.56
2023-04-19T05:50:28.684Z,9.64
2023-04-19T05:53:20.652Z,9.65
2023-04-19T05:55:52.694Z,9.68
2023-04-19T05:58:24.518Z,9.65
2023-04-19T06:00:56.447Z,9.67
2023-04-19T06:03:31.212Z,9.65
2023-04-19T06:06:05.440Z,9.66
2023-04-19T06:08:37.311Z,9.66
2023-04-19T06:11:20.199Z,9.63
2023-04-19T06:13:56.532Z,9.60
2023-04-19T06:16:28.750Z,9.54
2023-04-19T06:19:01.074Z,9.56
2023-04-19T06:21:33.023Z,9.52
2023-04-19T06:24:06.946Z,9.53
2023-04-19T06:26:38.750Z,9.50
2023-04-19T06:29:10.614Z,9.50
2023-04-19T06:31:43.102Z,9.48
2023-04-19T06:34:15.244Z,9.38
2023-04-19T06:36:47.443Z,9.37
2023-04-19T06:39:19.215Z,9.32
2023-04-19T06:41:51.062Z,9.28
2023-04-19T06:44:22.776Z,9.26
2023-04-19T06:46:54.477Z,9.22
2023-04-19T06:49:26.350Z,9.18
2023-04-19T06:51:59.571Z,9.17
2023-04-19T06:54:31.338Z,9.14
2023-04-19T06:57:03.588Z,9.11
2023-04-19T06:59:38.723Z,9.06
2023-04-19T07:02:10.750Z,9.08
2023-04-19T07:04:42.703Z,9.06
2023-04-19T07:07:14.551Z,9.02
2023-04-19T07:09:46.599Z,8.99
2023-04-19T07:12:18.576Z,8.96
2023-04-19T07:14:56.275Z,8.95
2023-04-19T07:17:28.021Z,9.02
2023-04-19T07:19:59.726Z,9.06
2023-04-19T07:22:31.437Z,9.19
2023-04-19T07:25:03.761Z,9.32
2023-04-19T07:27:35.453Z,9.46
2023-04-19T07:30:07.779Z,9.51
2023-04-19T07:32:39.591Z,9.63
2023-04-19T07:35:11.356Z,9.63
2023-04-19T07:37:43.026Z,9.69
2023-04-19T07:40:17.259Z,9.70
2023-04-19T07:42:49.273Z,9.73
2023-04-19T07:45:20.962Z,9.87
2023-04-19T07:47:52.737Z,9.91
2023-04-19T07:50:27.718Z,9.99
2023-04-19T07:52:59.549Z,10.00
2023-04-19T07:55:31.401Z,10.05
2023-04-19T07:58:03.293Z,10.10
2023-04-19T08:00:36.785Z,10.14
2023-04-19T08:03:08.770Z,10.26
2023-04-19T08:05:40.907Z,10.68
2023-04-19T08:08:12.720Z,11.14
2023-04-19T08:10:44.472Z,11.28
2023-04-19T08:13:17.320Z,11.28
2023-04-19T08:18:24.369Z,10.96
2023-04-19T08:20:56.757Z,10.94
2023-04-19T08:23:34.950Z,10.85
2023-04-19T08:26:16.955Z,10.83
2023-04-19T08:28:49.863Z,10.79
2023-04-19T08:31:21.753Z,10.92
2023-04-19T08:33:53.481Z,11.08
2023-04-19T08:36:36.041Z,11.32
2023-04-19T08:39:15.085Z,11.55
2023-04-19T08:41:59.038Z,12.27
2023-04-19T08:44:56.227Z,12.84
2023-04-19T08:47:44.748Z,13.46
2023-04-19T08:50:32.440Z,13.76
2023-04-19T08:53:24.172Z,14.09
2023-04-19T08:58:54.790Z,15.33
2023-04-19T09:01:34.991Z,15.80
2023-04-19T09:06:43.671Z,15.53
2023-04-19T09:11:53.299Z,16.04
2023-04-19T09:14:27.104Z,15.85
2023-04-19T09:17:27.909Z,16.02
2023-04-19T09:19:59.980Z,15.86
2023-04-19T09:22:32.817Z,15.79
2023-04-19T09:27:41.069Z,15.55
2023-04-19T09:30:24.036Z,15.66
2023-04-19T09:33:02.352Z,15.50
2023-04-19T09:35:47.453Z,15.51
2023-04-19T09:38:19.011Z,15.54
2023-04-19T09:40:50.944Z,15.36
2023-04-19T09:43:49.733Z,15.58
2023-04-19T09:46:34.039Z,16.03
2023-04-19T09:49:27.785Z,16.22
2023-04-19T09:52:13.642Z,16.13
2023-04-19T09:54:46.182Z,16.54
2023-04-19T09:57:20.587Z,16.38
2023-04-19T09:59:52.348Z,16.42
2023-04-19T10:02:25.138Z,16.44
2023-04-19T10:05:16.337Z,16.43
2023-04-19T10:07:50.626Z,16.40
2023-04-19T10:10:33.028Z,16.25
2023-04-19T10:15:54.151Z,16.18
2023-04-19T10:18:32.348Z,16.33
2023-04-19T10:21:08.410Z,16.45
2023-04-19T10:23:40.537Z,16.22
2023-04-19T10:26:12.259Z,16.10
2023-04-19T10:28:43.963Z,16.18
2023-04-19T10:31:16.145Z,16.47
2023-04-19T10:33:48.298Z,16.81
2023-04-19T10:36:21.882Z,16.54
2023-04-19T10:38:55.449Z,16.57
2023-04-19T10:41:57.669Z,16.36
2023-04-19T10:44:29.413Z,15.69
2023-04-19T10:47:01.258Z,15.14
2023-04-19T10:49:45.421Z,14.64
2023-04-19T10:52:29.489Z,14.53
2023-04-19T10:55:04.535Z,14.83
2023-04-19T10:58:05.467Z,15.10
2023-04-19T11:00:38.508Z,15.24
2023-04-19T11:03:45.597Z,14.97
2023-04-19T11:06:20.184Z,14.92
2023-04-19T11:08:52.966Z,15.29
2023-04-19T11:11:27.831Z,15.50
2023-04-19T11:14:04.272Z,15.19
2023-04-19T11:16:45.585Z,14.87
2023-04-19T11:19:21.161Z,14.21
2023-04-19T11:21:52.918Z,13.85
2023-04-19T11:24:24.587Z,13.62
2023-04-19T11:26:57.682Z,13.43
2023-04-19T11:29:29.400Z,13.32
2023-04-19T11:32:01.091Z,13.52
2023-04-19T11:34:37.838Z,13.45
2023-04-19T11:37:11.631Z,13.21
2023-04-19T11:39:47.573Z,13.09
2023-04-19T11:42:20.636Z,13.25
2023-04-19T11:44:52.647Z,13.13
2023-04-19T11:47:24.754Z,13.08
2023-04-19T11:49:56.645Z,13.13
2023-04-19T11:52:28.370Z,13.11
2023-04-19T11:55:18.471Z,12.84
2023-04-19T11:57:50.346Z,12.79
2023-04-19T12:00:29.112Z,12.90
2023-04-19T12:03:01.917Z,13.20
2023-04-19T12:05:35.202Z,13.24
2023-04-19T12:08:11.022Z,12.86
2023-04-19T12:10:57.267Z,12.64
2023-04-19T12:13:32.716Z,12.89
2023-04-19T12:16:04.764Z,12.82
2023-04-19T12:19:17.422Z,12.88
2023-04-19T12:21:49.538Z,13.08
2023-04-19T12:24:21.312Z,13.23
2023-04-19T12:26:57.466Z,13.37
2023-04-19T12:29:29.725Z,13.56
2023-04-19T12:32:01.825Z,13.47
2023-04-19T12:34:33.742Z,12.85
2023-04-19T12:37:05.603Z,12.81
2023-04-19T12:39:37.379Z,12.88
2023-04-19T12:42:09.094Z,12.47
2023-04-19T12:44:40.862Z,11.89
2023-04-19T12:47:12.684Z,11.97
2023-04-19T12:49:44.420Z,12.06
2023-04-19T12:52:16.332Z,12.21
2023-04-19T12:54:48.088Z,12.29
2023-04-19T12:57:19.885Z,12.07
2023-04-19T12:59:51.584Z,12.20
2023-04-19T13:02:23.739Z,12.43
2023-04-19T13:04:55.865Z,12.58
2023-04-19T13:07:28.600Z,12.50
2023-04-19T13:10:00.448Z,12.58
2023-04-19T13:12:32.301Z,12.77
2023-04-19T13:15:05.074Z,12.89
2023-04-19T13:17:37.986Z,12.67
2023-04-19T13:20:12.304Z,12.63
2023-04-19T13:22:44.068Z,12.59
2023-04-19T13:25:15.953Z,12.53
2023-04-19T13:27:47.804Z,12.27
2023-04-19T13:30:19.712Z,12.19
2023-04-19T13:32:51.628Z,12.04
2023-04-19T13:35:26.511Z,11.99
2023-04-19T13:37:58.276Z,12.05
2023-04-19T13:40:30.065Z,11.96
2023-04-19T13:43:01.762Z,11.72
2023-04-19T13:45:33.563Z,11.85
2023-04-19T13:48:05.910Z,11.39
2023-04-19T13:50:37.730Z,11.19
2023-04-19T13:53:09.445Z,11.27
2023-04-19T13:55:41.384Z,11.05
2023-04-19T13:58:16.612Z,11.12
2023-04-19T14:00:48.573Z,11.17
2023-04-19T14:03:22.331Z,11.07
2023-04-19T14:05:54.166Z,11.06
2023-04-19T14:08:26.280Z,11.06
2023-04-19T14:10:58.170Z,11.01
2023-04-19T14:13:29.970Z,11.21
2023-04-19T14:16:01.711Z,11.23
2023-04-19T14:18:33.493Z,11.06
2023-04-19T14:21:05.303Z,11.12
2023-04-19T14:23:37.099Z,11.22
2023-04-19T14:26:08.863Z,11.24
2023-04-19T14:28:40.560Z,11.45
2023-04-19T14:31:12.300Z,11.60
2023-04-19T14:33:44.071Z,11.60
2023-04-19T14:36:15.944Z,11.63
2023-04-19T14:38:47.642Z,11.41
2023-04-19T14:41:19.386Z,11.29
2023-04-19T14:43:51.952Z,11.20
2023-04-19T14:46:23.947Z,11.26
2023-04-19T14:48:57.189Z,11.21
2023-04-19T14:51:29.859Z,11.27
2023-04-19T14:54:01.724Z,11.31
2023-04-19T14:56:33.421Z,11.41
2023-04-19T14:59:08.116Z,11.25
2023-04-19T15:01:39.804Z,11.15
2023-04-19T15:04:11.818Z,11.07
2023-04-19T15:06:44.057Z,11.06
2023-04-19T15:09:16.391Z,10.94
2023-04-19T15:11:48.316Z,11.09
2023-04-19T15:14:20.126Z,11.09
2023-04-19T15:16:51.874Z,11.09
2023-04-19T15:19:23.664Z,11.20
2023-04-19T15:21:55.468Z,11.16
2023-04-19T15:24:27.322Z,11.02
2023-04-19T15:26:59.114Z,10.98
2023-04-19T15:29:30.892Z,11.01
2023-04-19T15:32:03.044Z,10.81
2023-04-19T15:34:34.929Z,10.53
2023-04-19T15:37:08.209Z,10.39
2023-04-19T15:39:40.064Z,10.40
2023-04-19T15:42:12.103Z,10.45
2023-04-19T15:44:44.337Z,10.63
2023-04-19T15:47:16.292Z,10.68
2023-04-19T15:49:48.088Z,10.73
2023-04-19T15:52:20.381Z,10.81
2023-04-19T15:54:52.168Z,10.86
2023-04-19T15:57:23.981Z,10.85
2023-04-19T15:59:55.713Z,10.68
2023-04-19T16:02:27.795Z,10.52
2023-04-19T16:04:59.715Z,10.52
2023-04-19T16:07:31.761Z,10.48
2023-04-19T16:10:03.574Z,10.42
2023-04-19T16:12:35.436Z,10.33
2023-04-19T16:15:07.586Z,10.24
2023-04-19T16:17:39.317Z,10.14
2023-04-19T16:20:11.398Z,10.09
2023-04-19T16:22:46.059Z,10.09
2023-04-19T16:25:17.789Z,10.14
2023-04-19T16:27:49.680Z,10.09
2023-04-19T16:30:23.508Z,10.12
2023-04-19T16:32:56.457Z,10.10
2023-04-19T16:35:28.310Z,10.18
2023-04-19T16:38:04.339Z,10.18
2023-04-19T16:40:36.173Z,10.17
2023-04-19T16:43:08.024Z,10.21
2023-04-19T16:45:40.054Z,10.15
2023-04-19T16:48:12.560Z,10.09
2023-04-19T16:50:44.547Z,10.10
2023-04-19T16:53:16.290Z,10.16
2023-04-19T16:55:48.098Z,10.12
2023-04-19T16:58:19.925Z,10.06
2023-04-19T17:00:52.238Z,10.03
2023-04-19T17:03:24.265Z,9.94
2023-04-19T17:06:01.363Z,9.83
2023-04-19T17:08:33.336Z,9.75
2023-04-19T17:11:05.174Z,9.73
2023-04-19T17:13:37.748Z,9.64
2023-04-19T17:16:09.437Z,9.52
2023-04-19T17:18:41.332Z,9.49
2023-04-19T17:21:16.009Z,9.45
2023-04-19T17:23:47.596Z,9.41
2023-04-19T17:26:19.439Z,9.40
2023-04-19T17:28:51.232Z,9.29
2023-04-19T17:31:23.109Z,9.04
2023-04-19T17:33:57.932Z,8.98
2023-04-19T17:36:32.667Z,8.84
2023-04-19T17:39:06.584Z,8.80
2023-04-19T17:41:41.558Z,8.69
2023-04-19T17:44:13.387Z,8.59
2023-04-19T17:46:45.109Z,8.43
2023-04-19T17:49:19.128Z,8.28
2023-04-19T17:51:51.160Z,8.16
2023-04-19T17:54:23.025Z,8.08
2023-04-19T17:56:54.808Z,8.02
2023-04-19T17:59:26.554Z,7.92
2023-04-19T18:01:58.380Z,7.87
2023-04-19T18:04:31.123Z,7.81
2023-04-19T18:07:02.879Z,7.80
2023-04-19T18:09:34.908Z,7.66
2023-04-19T18:12:07.345Z,7.49
2023-04-19T18:14:39.010Z,7.44
2023-04-19T18:17:10.761Z,7.44
2023-04-19T18:19:42.410Z,7.44
2023-04-19T18:22:16.981Z,7.40
2023-04-19T18:24:51.166Z,7.37
2023-04-19T18:27:22.902Z,7.36
2023-04-19T18:29:55.720Z,7.30
2023-04-19T18:32:28.719Z,7.33
2023-04-19T18:35:00.503Z,7.25
2023-04-19T18:37:34.618Z,7.20
2023-04-19T18:40:07.328Z,7.10
2023-04-19T18:42:39.520Z,7.06
2023-04-19T18:45:11.534Z,7.05
2023-04-19T18:47:43.309Z,7.00
2023-04-19T18:50:19.195Z,6.94
2023-04-19T18:52:51.088Z,6.95
2023-04-19T18:55:22.899Z,6.99
2023-04-19T18:57:54.938Z,7.01
2023-04-19T19:00:30.799Z,6.98
2023-04-19T19:03:03.832Z,6.91
2023-04-19T19:05:35.987Z,6.87
2023-04-19T19:08:08.013Z,6.93
2023-04-19T19:11:07.178Z,6.91
2023-04-19T19:13:31.688Z,6.91
2023-04-19T19:16:05.521Z,6.90
2023-04-19T19:18:37.323Z,6.89
2023-04-19T19:21:09.442Z,6.83
2023-04-19T19:23:42.776Z,6.87
2023-04-19T19:26:14.931Z,6.92
2023-04-19T19:28:47.371Z,6.88
2023-04-19T19:31:21.445Z,6.83
2023-04-19T19:34:13.425Z,6.73
2023-04-19T19:36:45.631Z,6.64
2023-04-19T19:39:17.635Z,6.64
2023-04-19T19:42:05.153Z,6.60
2023-04-19T19:44:37.963Z,6.63
2023-04-19T19:47:10.951Z,6.68
2023-04-19T19:52:18.223Z,6.64
2023-04-19T19:54:50.009Z,6.63
2023-04-19T19:58:15.527Z,6.66
2023-04-19T20:02:56.703Z,6.67
2023-04-19T20:05:28.930Z,6.60
2023-04-19T20:08:10.085Z,6.55
2023-04-19T20:10:42.944Z,6.60
2023-04-19T20:13:14.788Z,6.60
2023-04-19T20:15:47.392Z,6.57
2023-04-19T20:18:19.209Z,6.57
2023-04-19T20:20:51.850Z,6.46
2023-04-19T20:23:23.776Z,6.44
2023-04-19T20:25:55.574Z,6.40
2023-04-19T20:28:27.468Z,6.41
2023-04-19T20:30:59.146Z,6.39
2023-04-19T20:33:30.941Z,6.40
2023-04-19T20:36:03.704Z,6.45
2023-04-19T20:38:35.421Z,6.35
2023-04-19T20:41:07.508Z,6.27
2023-04-19T20:43:39.328Z,6.22
2023-04-19T20:46:11.555Z,6.17
2023-04-19T20:48:43.416Z,6.14
2023-04-19T20:51:15.333Z,6.15
2023-04-19T20:53:47.000Z,6.17
2023-04-19T20:56:18.704Z,6.14
2023-04-19T20:58:50.628Z,6.11
2023-04-19T21:01:24.309Z,6.14
2023-04-19T21:03:56.367Z,6.13
2023-04-19T21:06:28.245Z,6.04
2023-04-19T21:09:00.202Z,6.00
2023-04-19T21:11:31.892Z,5.96
2023-04-19T21:14:03.649Z,5.90
2023-04-19T21:16:36.736Z,5.80
2023-04-19T21:19:08.488Z,5.77
2023-04-19T21:21:40.430Z,5.83
2023-04-19T21:24:12.245Z,5.80
2023-04-19T21:26:44.064Z,5.80
2023-04-19T21:29:16.077Z,5.77
2023-04-19T21:31:48.047Z,5.76
2023-04-19T21:34:19.852Z,5.78
2023-04-19T21:36:52.839Z,5.84
2023-04-19T21:39:24.775Z,5.90
2023-04-19T21:41:57.527Z,5.93
2023-04-19T21:44:29.238Z,5.95
2023-04-19T21:47:01.188Z,5.97
2023-04-19T21:49:33.561Z,5.96
2023-04-19T21:52:06.519Z,5.93
2023-04-19T21:54:38.396Z,5.90
2023-04-19T21:57:11.117Z,5.89
2023-04-19T21:59:42.855Z,5.89
2023-04-19T22:02:14.600Z,5.90
2023-04-19T22:04:46.419Z,5.90
2023-04-19T22:07:18.869Z,5.90
2023-04-19T22:09:50.663Z,5.93
2023-04-19T22:12:23.397Z,5.94
2023-04-19T22:14:55.319Z,5.92
2023-04-19T22:17:27.808Z,5.96
2023-04-19T22:19:59.971Z,6.03
2023-04-19T22:22:31.614Z,6.10
2023-04-19T22:25:03.452Z,6.13
2023-04-19T22:27:35.227Z,6.16
2023-04-19T22:30:07.723Z,6.15
2023-04-19T22:32:39.354Z,6.08
2023-04-19T22:35:11.190Z,6.09
2023-04-19T22:37:43.057Z,6.11
2023-04-19T22:40:14.812Z,6.10
2023-04-19T22:42:46.520Z,6.10
2023-04-19T22:45:18.407Z,6.09
2023-04-19T22:47:52.914Z,6.07
2023-04-19T22:50:24.768Z,6.04
2023-04-19T22:52:56.452Z,6.06
2023-04-19T22:55:28.133Z,6.04
2023-04-19T22:57:59.949Z,5.96
2023-04-19T23:00:32.026Z,5.95
2023-04-19T23:03:04.194Z,5.91
2023-04-19T23:05:36.248Z,5.91
2023-04-19T23:08:09.307Z,5.86
2023-04-19T23:10:42.513Z,5.85
2023-04-19T23:13:15.822Z,5.83
2023-04-19T23:15:50.415Z,5.82
2023-04-19T23:18:22.383Z,5.80
2023-04-19T23:20:57.427Z,5.71
2023-04-19T23:23:29.108Z,5.70
2023-04-19T23:26:00.854Z,5.70
2023-04-19T23:28:32.585Z,5.63
2023-04-19T23:31:04.515Z,5.59
2023-04-19T23:33:36.373Z,5.61
2023-04-19T23:36:08.349Z,5.63
2023-04-19T23:38:40.165Z,5.63
2023-04-19T23:41:14.789Z,5.66
2023-04-19T23:43:46.519Z,5.65
2023-04-19T23:46:18.223Z,5.62
2023-04-19T23:48:49.901Z,5.62
2023-04-19T23:51:21.593Z,5.59
2023-04-19T23:53:53.376Z,5.55
2023-04-19T23:56:25.072Z,5.54
2023-04-19T23:58:57.512Z,5.54
